createdAt,value
2023-05-05T07:02:20.813Z,16.26
2023-05-05T07:05:23.686Z,16.35
2023-05-05T07:08:26.055Z,16.28
2023-05-05T07:11:28.808Z,16.31
2023-05-05T07:14:31.272Z,16.72
2023-05-05T07:17:35.318Z,16.95
2023-05-05T07:20:37.480Z,17.10
2023-05-05T07:23:40.619Z,17.61
2023-05-05T07:26:43.009Z,17.70
2023-05-05T07:29:45.694Z,18.03
2023-05-05T07:32:49.870Z,18.03
2023-05-05T07:35:52.527Z,17.98
2023-05-05T07:38:54.972Z,18.08
2023-05-05T07:41:57.643Z,18.11
2023-05-05T07:45:00.132Z,17.93
2023-05-05T07:48:04.477Z,18.01
2023-05-05T07:51:07.092Z,18.45
2023-05-05T07:54:09.797Z,18.28
2023-05-05T07:57:12.244Z,18.07
2023-05-05T08:00:15.900Z,18.21
2023-05-05T08:03:24.534Z,18.36
2023-05-05T08:06:28.530Z,18.80
2023-05-05T08:09:31.360Z,18.89
2023-05-05T08:12:33.909Z,18.77
2023-05-05T08:15:36.889Z,18.79
2023-05-05T08:18:40.641Z,18.20
2023-05-05T08:21:43.407Z,18.12
2023-05-05T08:24:46.231Z,18.35
2023-05-05T08:27:48.956Z,18.41
2023-05-05T08:30:51.440Z,18.70
2023-05-05T08:33:55.876Z,18.87
2023-05-05T08:36:58.500Z,19.06
2023-05-05T08:40:01.382Z,19.26
2023-05-05T08:43:03.970Z,19.34
2023-05-05T08:46:07.267Z,19.74
2023-05-05T08:49:14.136Z,20.10
2023-05-05T08:52:18.367Z,20.00
2023-05-05T08:55:24.183Z,19.54
2023-05-05T08:58:28.971Z,19.80
2023-05-05T09:01:32.114Z,19.52
2023-05-05T09:04:36.259Z,19.87
2023-05-05T09:07:41.280Z,20.29
2023-05-05T09:10:44.697Z,20.34
2023-05-05T09:13:47.514Z,20.10
2023-05-05T09:16:50.246Z,19.88
2023-05-05T09:20:04.109Z,19.45
2023-05-05T09:23:10.236Z,19.42
2023-05-05T09:26:12.611Z,19.83
2023-05-05T09:29:18.669Z,19.57
2023-05-05T09:32:21.093Z,19.46
2023-05-05T09:35:25.730Z,19.42
2023-05-05T09:38:28.239Z,19.59
2023-05-05T09:41:37.500Z,20.14
2023-05-05T09:44:40.686Z,20.55
2023-05-05T09:47:43.397Z,21.04
2023-05-05T09:50:47.201Z,20.64
2023-05-05T09:53:50.083Z,20.46
2023-05-05T09:56:52.697Z,20.35
2023-05-05T09:59:57.296Z,20.60
2023-05-05T10:03:01.914Z,20.22
2023-05-05T10:06:07.763Z,20.00
2023-05-05T10:09:10.746Z,19.57
2023-05-05T10:12:13.482Z,19.36
2023-05-05T10:15:16.019Z,19.61
2023-05-05T10:18:21.573Z,20.04
2023-05-05T10:21:25.501Z,20.73
2023-05-05T10:24:38.754Z,20.57
2023-05-05T10:27:43.305Z,20.77
2023-05-05T10:30:46.658Z,20.97
2023-05-05T10:33:52.060Z,21.10
2023-05-05T10:36:56.951Z,20.99
2023-05-05T10:39:59.433Z,20.05
2023-05-05T10:43:02.310Z,19.78
2023-05-05T10:46:05.011Z,20.18
2023-05-05T10:49:13.511Z,20.42
2023-05-05T10:52:23.427Z,20.38
2023-05-05T10:55:30.365Z,20.23
2023-05-05T10:58:47.077Z,20.12
2023-05-05T11:01:54.389Z,20.64
2023-05-05T11:05:22.323Z,20.87
2023-05-05T11:08:27.054Z,20.94
2023-05-05T11:11:59.403Z,20.51
2023-05-05T11:15:37.358Z,20.71
2023-05-05T11:18:40.502Z,20.81
2023-05-05T11:21:59.750Z,20.62
2023-05-05T11:25:18.465Z,20.48
2023-05-05T11:28:23.142Z,20.33
2023-05-05T11:31:25.616Z,20.44
2023-05-05T11:34:28.424Z,20.59
2023-05-05T11:37:30.922Z,20.64
2023-05-05T11:40:35.068Z,21.04
2023-05-05T11:43:37.506Z,21.17
2023-05-05T11:46:40.603Z,21.60
2023-05-05T11:49:43.171Z,21.78
2023-05-05T11:52:45.885Z,21.69
2023-05-05T11:55:49.904Z,21.51
2023-05-05T11:59:07.045Z,21.62
2023-05-05T12:02:10.296Z,21.62
2023-05-05T12:05:14.861Z,21.52
2023-05-05T12:08:16.938Z,21.28
2023-05-05T12:11:21.161Z,21.77
2023-05-05T12:14:23.946Z,21.92
2023-05-05T12:17:34.614Z,22.35
2023-05-05T12:20:37.228Z,21.69
2023-05-05T12:23:39.968Z,21.69
2023-05-05T12:26:43.827Z,21.77
2023-05-05T12:29:46.580Z,21.85
2023-05-05T12:32:48.979Z,22.10
2023-05-05T12:35:51.730Z,21.81
2023-05-05T12:38:54.188Z,22.03
2023-05-05T12:42:03.501Z,21.92
2023-05-05T12:45:08.248Z,22.54
2023-05-05T12:48:23.270Z,22.28
2023-05-05T12:51:27.136Z,22.32
2023-05-05T12:54:30.206Z,22.00
2023-05-05T12:57:34.157Z,22.23
2023-05-05T13:00:37.104Z,22.55
2023-05-05T13:03:39.508Z,22.27
2023-05-05T13:06:43.452Z,22.60
2023-05-05T13:09:46.202Z,23.30
2023-05-05T13:12:50.493Z,23.25
2023-05-05T13:15:53.192Z,23.19
2023-05-05T13:18:57.656Z,23.23
2023-05-05T13:22:00.002Z,23.24
2023-05-05T13:25:02.764Z,23.24
2023-05-05T13:28:07.132Z,23.07
2023-05-05T13:31:10.035Z,22.91
2023-05-05T13:34:12.475Z,23.16
2023-05-05T13:37:15.295Z,22.80
2023-05-05T13:40:17.718Z,22.87
2023-05-05T13:43:22.132Z,22.97
2023-05-05T13:46:24.857Z,22.92
2023-05-05T13:49:27.825Z,22.67
2023-05-05T13:52:32.399Z,23.07
2023-05-05T13:55:36.383Z,23.21
2023-05-05T13:58:40.169Z,22.88
2023-05-05T14:01:42.960Z,22.82
2023-05-05T14:04:45.685Z,22.94
2023-05-05T14:07:48.202Z,23.18
2023-05-05T14:10:52.058Z,22.74
2023-05-05T14:13:56.611Z,22.57
2023-05-05T14:16:59.297Z,22.63
2023-05-05T14:20:01.878Z,23.01
2023-05-05T14:23:04.523Z,23.17
2023-05-05T14:26:08.876Z,22.56
2023-05-05T14:29:13.013Z,22.35
2023-05-05T14:32:15.498Z,22.26
2023-05-05T14:35:18.499Z,22.26
2023-05-05T14:38:21.098Z,22.15
2023-05-05T14:41:24.171Z,22.52
2023-05-05T14:44:28.402Z,22.17
2023-05-05T14:47:31.147Z,22.41
2023-05-05T14:50:33.685Z,22.70
2023-05-05T14:53:36.454Z,22.45
2023-05-05T14:56:39.042Z,22.68
2023-05-05T14:59:43.450Z,22.59
2023-05-05T15:02:48.019Z,22.63
2023-05-05T15:05:50.970Z,22.61
2023-05-05T15:08:53.413Z,22.61
2023-05-05T15:11:56.295Z,22.32
2023-05-05T15:15:00.058Z,22.08
2023-05-05T15:18:02.745Z,22.13
2023-05-05T15:21:05.206Z,22.35
2023-05-05T15:24:08.119Z,21.94
2023-05-05T15:27:10.542Z,22.38
2023-05-05T15:30:15.147Z,22.16
2023-05-05T15:33:17.613Z,21.91
2023-05-05T15:36:22.715Z,21.96
2023-05-05T15:39:25.262Z,21.95
2023-05-05T15:42:28.005Z,22.07
2023-05-05T15:45:31.843Z,22.10
2023-05-05T15:48:35.696Z,22.02
2023-05-05T15:51:37.868Z,21.83
2023-05-05T15:54:41.415Z,21.75
